AirNav  
 
 1399 users online  

5M1 Dewitt Municipal/Whitcomb Field Airport
De Witt, Arkansas, USA

GOING TO DE WITT?


FAA INFORMATION EFFECTIVE 25 FEBRUARY 2021

Location

FAA Identifier: 5M1
Lat/Long: 34-15-44.2000N 091-18-27.0000W
34-15.736667N 091-18.450000W
34.2622778,-91.3075000
(estimated)
Elevation: 188.8 ft. / 57.5 m (surveyed)
Variation: 03E (1985)
From city: 3 miles SE of DE WITT, AR
Time zone: UTC -6 (UTC -5 during Daylight Saving Time)
Zip code: 72042

Airport Operations

Airport use: Open to the public
Activation date: 06/1970
Control tower: no
ARTCC: MEMPHIS CENTER
FSS: JONESBORO FLIGHT SERVICE STATION
NOTAMs facility: JBR (NOTAM-D service available)
Attendance: MON-FRI 0800-1700, MAR-AUG SAT 0700-1200
FOR SVC AFT HRS CALL 870-830-3091 OR 870-946-1745
Wind indicator: lighted
Segmented circle: yes
Lights: ACTVT REIL RWY 18 & 36; PAPI RWY 18 & 36; MIRL RWY 18/36 - CTAF.
Beacon: white-green (lighted land airport)
Operates sunset to sunrise.

Airport Communications

CTAF: 122.9

Nearby radio navigation aids

VOR radial/distance  VOR name  Freq  Var
PBFr084/30.7PINE BLUFF VOR/DME116.0004E
UJMr238/36.5MARVELL VOR/DME109.6001E

Airport Services

Fuel available: 100LL
FUEL AVBL 24 HR SELF SERVE WITH CREDIT CARD.
Parking: tiedowns
Airframe service: MAJOR
Powerplant service: MAJOR
Bottled oxygen: NONE
Bulk oxygen: NONE

Runway Information

Runway 18/36

Dimensions: 3205 x 60 ft. / 977 x 18 m
Surface: asphalt, in good condition
Weight bearing capacity: 
Single wheel: 12.0
Runway edge lights: medium intensity
RUNWAY 18  RUNWAY 36
Latitude: 34-16.000862N34-15.472687N
Longitude: 091-18.441250W091-18.457420W
Elevation: 188.7 ft.188.0 ft.
Traffic pattern: leftleft
Runway heading: 178 magnetic, 181 true358 magnetic, 001 true
Markings: nonprecision, in good conditionnonprecision, in good condition
Visual slope indicator: 2-light PAPI on left (3.00 degrees glide path)2-light PAPI on left (3.00 degrees glide path)
Runway end identifier lights: yesyes
Touchdown point: yes, no lightsyes, no lights
Obstructions: 15 ft. road, 450 ft. from runway, 16:1 slope to clearnone

Airport Ownership and Management from official FAA records

Ownership: Publicly-owned
Owner: CITY OF DE WITT
120 COURT SQUARE
DE WITT, AR 72042
Phone 870-946-2191
Manager: MATTHEW AUFDERHEIDE
821 W. 5TH
DEWITT, AR 72042
Phone 870-830-3091

Airport Operational Statistics

Aircraft based on the field: 15
Single engine airplanes: 15
    
Aircraft operations: avg 140/day *
98% local general aviation
2% transient general aviation
<1% military
* for 12-month period ending 31 August 2020

Additional Remarks

FOR CD CTC MEMPHIS ARTCC AT 901-368-8453.

Instrument Procedures

There are no published instrument procedures at 5M1.

Some nearby airports with instrument procedures:

M73 - Almyra Municipal Airport (12 nm NW)
KSGT - Stuttgart Municipal Airport / Carl Humphrey Field (24 nm NW)
0M0 - Billy Free Municipal Airport (25 nm SW)
KPBF - Pinebluff Regional/Grider Field Airport (32 nm W)
KHEE - Thompson-Robbins Airport (37 nm NE)
 
Loc | Ops | Rwys | IFR | FBO | Links
Com | Nav | Svcs | Stats | Notes
Area around 5M1 (Dewitt Municipal/Whitcomb Field Airport)
 
Road maps at: MapQuest Bing Google
 
Aerial photo
WARNING: Photo may not be current or correct
Aerial photo of 5M1 (Dewitt Municipal/Whitcomb Field Airport)
Photo courtesy of the Arkansas Department of Aeronautics
Taken in the Spring of 2007

Do you have a better or more recent aerial photo of Dewitt Municipal/Whitcomb Field Airport that you would like to share? If so, please send us your photo.

 
Sectional chart

 
Airport distance calculator
Flying to Dewitt Municipal/Whitcomb Field Airport? Find the distance to fly.

From to 5M1

Sunrise and sunset
Times for 05-Mar-2021
 Local
(UTC-6)
 Zulu
(UTC)
Morning civil twilight06:0512:05
Sunrise06:3012:30
Sunset18:0400:04
Evening civil twilight18:2900:29

Current date and time
Zulu (UTC)  05-Mar-2021 19:53:10
Local (UTC-6)  05-Mar-2021 13:53:10
 
METAR
KSGT 
24nm NW 
051856Z AUTO 03011KT 10SM BKN080 OVC100 11/04 A3016 RMK AO2 SLP214 T01060039
KPBF 
31nm W 
051853Z AUTO 02013KT 10SM OVC085 17/03 A3012 RMK AO2 SLP198 T01720033
KCKM 
39nm E 
051855Z AUTO 04010G15KT 10SM CLR 15/04 A3012 RMK A01
KRNV 
41nm SE 
051855Z AUTO 06003KT 10SM SCT120 16/05 A3010 RMK AO2 T01610050
KLLQ 
44nm SW 
051853Z AUTO 03009KT 10SM BKN120 14/06 A3007 RMK AO2 SLP180 T01440061
TAF
KPBF 
31nm W 
051144Z 0512/0612 VRB02KT P6SM BKN150 FM051500 07007KT P6SM OVC120 FM051800 06012G20KT 6SM -SHRA BR BKN060 OVC100 FM060000 04010KT P6SM VCSH OVC040 FM060400 02006KT P6SM BKN050
NOTAMs
Click for the latest NOTAMs
NOTAMs are issued by the DoD/FAA and will open in a separate window not controlled by AirNav.

 

 
 

FBO, Fuel Providers, and Aircraft Ground Support

  
 Business Name 
 
 Contact 
 
 Services / Description 
 
Fuel Prices
 
Comments
  
DeWitt Municipal Airport 870-946-3838
no information available

If you are affiliated with DeWitt Municipal Airport and would like to show here your services, contact info, web link, logo, and more, click here
100LL
SS $4.25 
 Updated 03-Feb-2021
 
   write
SS=Self service
Update Fuel Prices
 

Would you like to see your business listed on this page?

 If your business provides an interesting product or service to pilots, flight crews, aircraft, or users of the Dewitt Municipal/Whitcomb Field Airport, you should consider listing it here.  To start the listing process, click on the button below
 
Add a business
 

Other Pages about Dewitt Municipal/Whitcomb Field Airport

Update a link
 
Copyright © AirNav, LLC. All rights reserved. Privacy Policy  Contact